Wetterdaten: Woche 05.07.04 - 11.07.04 (KW28)
Datum Zeit Temperatur Luftfeuchte Luftdruck Regenmenge Wind Richtung Taupunkt Windchill
05.07.2004 00:00 15.8 C 77 % 1016.9 hPa 0.0 l/m 2.3 km/h (1 Bft) O-SO 11.7 C 15.8 C
05.07.2004 01:00 14.6 C 84 % 1017.0 hPa 0.0 l/m 1.3 km/h (1 Bft) O-SO 11.9 C 14.6 C
05.07.2004 02:00 13.8 C 87 % 1017.1 hPa 0.0 l/m 0.3 km/h (0 Bft) O-SO 11.7 C 13.8 C
05.07.2004 03:00 13.3 C 91 % 1017.1 hPa 0.0 l/m 1.8 km/h (1 Bft) O-SO 11.9 C 13.3 C
05.07.2004 04:00 12.4 C 93 % 1017.3 hPa 0.0 l/m 0.7 km/h (0 Bft) O-SO 11.3 C 12.4 C
05.07.2004 05:00 11.9 C 97 % 1017.4 hPa 0.0 l/m 0.6 km/h (0 Bft) O-SO 11.4 C 11.9 C
05.07.2004 06:00 12.9 C 95 % 1018.0 hPa 0.0 l/m 2.1 km/h (1 Bft) O-SO 12.1 C 12.9 C
05.07.2004 07:00 15.2 C 85 % 1018.1 hPa 0.0 l/m 2.0 km/h (1 Bft) O-SO 12.6 C 15.2 C
05.07.2004 08:00 16.8 C 78 % 1019.1 hPa 0.0 l/m 1.5 km/h (1 Bft) O 12.9 C 16.8 C
05.07.2004 09:00 17.9 C 78 % 1020.3 hPa 0.6 l/m 5.9 km/h (2 Bft) NW 13.9 C 17.9 C
05.07.2004 10:00 16.9 C 91 % 1020.6 hPa 0.3 l/m 8.1 km/h (2 Bft) NO 15.5 C 16.9 C
05.07.2004 11:00 18.7 C 84 % 1020.0 hPa 0.0 l/m 6.3 km/h (2 Bft) O-NO 15.8 C 18.7 C
05.07.2004 12:00 21.6 C 65 % 1019.2 hPa 0.0 l/m 5.5 km/h (1 Bft) NW 14.7 C 21.6 C
05.07.2004 13:00 22.7 C 60 % 1018.8 hPa 0.0 l/m 7.1 km/h (2 Bft) O-SO 14.5 C 22.7 C
05.07.2004 14:00 24.9 C 45 % 1017.9 hPa 0.0 l/m 14.9 km/h (3 Bft) NW 12.1 C 24.9 C
05.07.2004 15:00 25.1 C 44 % 1017.3 hPa 0.0 l/m 12.2 km/h (2 Bft) NW 12.1 C 25.1 C
05.07.2004 16:00 26.5 C 43 % 1016.5 hPa 0.0 l/m 14.9 km/h (3 Bft) NW 12.7 C 26.5 C
05.07.2004 17:00 25.2 C 45 % 1016.7 hPa 0.0 l/m 21.8 km/h (4 Bft) NW 12.3 C 25.2 C
05.07.2004 18:00 22.4 C 55 % 1017.7 hPa 0.0 l/m 24.5 km/h (4 Bft) NW 12.9 C 22.4 C
05.07.2004 19:00 19.5 C 74 % 1018.5 hPa 0.3 l/m 5.4 km/h (1 Bft) NW 14.7 C 19.5 C
05.07.2004 20:00 18.2 C 90 % 1018.7 hPa 0.0 l/m 1.3 km/h (1 Bft) O-SO 16.6 C 18.2 C
05.07.2004 21:00 17.7 C 94 % 1018.9 hPa 1.9 l/m 2.6 km/h (1 Bft) O-SO 16.7 C 17.7 C
05.07.2004 22:00 16.9 C 99 % 1019.0 hPa 0.0 l/m 4.6 km/h (1 Bft) O-SO 16.7 C 16.9 C
05.07.2004 23:00 16.9 C 100 % 1019.7 hPa 2.8 l/m 0.0 km/h (0 Bft) N 16.9 C 16.9 C
06.07.2004 00:00 16.6 C 100 % 1019.4 hPa 1.5 l/m 0.3 km/h (0 Bft) W-NW 16.6 C 16.6 C
06.07.2004 01:00 16.2 C 100 % 1019.6 hPa 0.6 l/m 0.0 km/h (0 Bft) N 16.2 C 16.2 C
06.07.2004 02:00 16.1 C 100 % 1018.9 hPa 0.0 l/m 0.1 km/h (0 Bft) N 16.1 C 16.1 C
06.07.2004 03:00 15.9 C 100 % 1018.9 hPa 0.0 l/m 0.0 km/h (0 Bft) N 15.9 C 15.9 C
06.07.2004 04:00 15.8 C 100 % 1018.9 hPa 0.3 l/m 0.0 km/h (0 Bft) N 15.8 C 15.8 C
06.07.2004 05:00 16.0 C 100 % 1019.3 hPa 0.9 l/m 0.0 km/h (0 Bft) N 16.0 C 16.0 C
06.07.2004 06:00 15.5 C 100 % 1020.0 hPa 0.3 l/m 0.4 km/h (0 Bft) NO 15.5 C 15.5 C
06.07.2004 07:00 14.0 C 100 % 1020.5 hPa 0.3 l/m 1.2 km/h (1 Bft) O-SO 14.0 C 14.0 C
06.07.2004 08:00 14.7 C 100 % 1021.2 hPa 0.3 l/m 1.3 km/h (1 Bft) O-SO 14.7 C 14.7 C
06.07.2004 09:00 15.5 C 100 % 1021.1 hPa 0.0 l/m 0.0 km/h (0 Bft) N 15.5 C 15.5 C
06.07.2004 10:00 15.8 C 99 % 1022.0 hPa 0.0 l/m 0.0 km/h (0 Bft) N 15.7 C 15.8 C
06.07.2004 11:00 16.8 C 92 % 1021.9 hPa 0.0 l/m 0.4 km/h (0 Bft) NW 15.4 C 16.8 C
06.07.2004 12:00 17.7 C 88 % 1021.8 hPa 0.0 l/m 1.5 km/h (1 Bft) O-SO 15.6 C 17.7 C
06.07.2004 13:00 18.5 C 84 % 1021.4 hPa 0.0 l/m 5.4 km/h (1 Bft) O-SO 15.7 C 18.5 C
06.07.2004 14:00 20.1 C 75 % 1020.7 hPa 0.0 l/m 10.0 km/h (2 Bft) O-SO 15.4 C 20.1 C
06.07.2004 15:00 22.0 C 62 % 1019.8 hPa 0.0 l/m 11.7 km/h (2 Bft) O-SO 14.4 C 22.0 C
06.07.2004 16:00 22.0 C 62 % 1019.2 hPa 0.0 l/m 11.8 km/h (2 Bft) O-SO 14.3 C 22.0 C
06.07.2004 17:00 22.8 C 56 % 1018.5 hPa 0.0 l/m 6.9 km/h (2 Bft) O-SO 13.5 C 22.8 C
06.07.2004 18:00 21.4 C 61 % 1018.1 hPa 0.0 l/m 6.1 km/h (2 Bft) O-SO 13.5 C 21.4 C
06.07.2004 19:00 19.9 C 65 % 1017.5 hPa 0.0 l/m 6.0 km/h (2 Bft) O-SO 13.0 C 19.9 C
06.07.2004 20:00 19.2 C 68 % 1017.5 hPa 0.0 l/m 0.4 km/h (0 Bft) O-SO 13.2 C 19.2 C
06.07.2004 21:00 17.7 C 78 % 1018.0 hPa 0.0 l/m 2.0 km/h (1 Bft) O-SO 13.8 C 17.7 C
06.07.2004 22:00 17.0 C 85 % 1018.8 hPa 0.0 l/m 1.6 km/h (1 Bft) O-SO 14.5 C 17.0 C
06.07.2004 23:00 16.5 C 90 % 1018.7 hPa 0.0 l/m 0.6 km/h (0 Bft) O-SO 14.9 C 16.5 C
07.07.2004 00:00 16.3 C 95 % 1018.4 hPa 0.0 l/m 0.0 km/h (0 Bft) N 15.4 C 16.3 C
07.07.2004 01:00 15.7 C 96 % 1017.9 hPa 0.3 l/m 0.5 km/h (0 Bft) O-SO 15.0 C 15.7 C
07.07.2004 02:00 14.7 C 99 % 1017.9 hPa 0.0 l/m 0.2 km/h (0 Bft) O-SO 14.4 C 14.7 C
07.07.2004 03:00 14.1 C 100 % 1017.1 hPa 0.0 l/m 1.2 km/h (1 Bft) O-SO 14.1 C 14.1 C
07.07.2004 04:00 13.5 C 100 % 1016.5 hPa 0.0 l/m 0.3 km/h (0 Bft) O-SO 13.5 C 13.5 C
07.07.2004 05:00 13.4 C 100 % 1016.2 hPa 0.0 l/m 0.0 km/h (0 Bft) N 13.4 C 13.4 C
07.07.2004 06:00 14.3 C 100 % 1015.8 hPa 0.0 l/m 0.0 km/h (0 Bft) N 14.3 C 14.3 C
07.07.2004 07:00 15.3 C 100 % 1015.2 hPa 0.0 l/m 0.0 km/h (0 Bft) N 15.3 C 15.3 C
07.07.2004 08:00 17.1 C 90 % 1014.6 hPa 0.0 l/m 0.7 km/h (0 Bft) O 15.4 C 17.1 C
07.07.2004 09:00 18.1 C 83 % 1014.5 hPa 0.0 l/m 0.2 km/h (0 Bft) O-SO 15.1 C 18.1 C
07.07.2004 10:00 19.1 C 81 % 1014.4 hPa 0.0 l/m 3.6 km/h (1 Bft) O-SO 15.7 C 19.1 C
07.07.2004 11:00 19.6 C 78 % 1013.7 hPa 0.0 l/m 8.1 km/h (2 Bft) O-SO 15.6 C 19.6 C
07.07.2004 12:00 20.2 C 75 % 1013.2 hPa 0.0 l/m 8.8 km/h (2 Bft) O-SO 15.6 C 20.2 C
07.07.2004 13:00 19.9 C 77 % 1013.2 hPa 0.0 l/m 1.5 km/h (1 Bft) O-SO 15.7 C 19.9 C
07.07.2004 14:00 21.2 C 73 % 1012.2 hPa 0.0 l/m 2.2 km/h (1 Bft) O-SO 16.2 C 21.2 C
07.07.2004 15:00 20.5 C 83 % 1012.9 hPa 1.5 l/m 4.7 km/h (1 Bft) O-SO 17.5 C 20.5 C
07.07.2004 16:00 23.6 C 71 % 1011.4 hPa 0.0 l/m 7.3 km/h (2 Bft) O-SO 18.0 C 23.6 C
07.07.2004 17:00 24.6 C 61 % 1010.5 hPa 0.0 l/m 6.6 km/h (2 Bft) O-SO 16.7 C 24.6 C
07.07.2004 18:00 24.5 C 62 % 1010.6 hPa 0.0 l/m 5.0 km/h (1 Bft) O-SO 16.8 C 24.5 C
07.07.2004 19:00 23.5 C 67 % 1010.6 hPa 0.0 l/m 3.5 km/h (1 Bft) O-SO 16.9 C 23.5 C
07.07.2004 20:00 21.8 C 75 % 1010.4 hPa 0.0 l/m 1.7 km/h (1 Bft) O-SO 17.2 C 21.8 C
07.07.2004 21:00 20.3 C 83 % 1010.8 hPa 0.0 l/m 0.0 km/h (0 Bft) N 17.2 C 20.3 C
07.07.2004 22:00 18.7 C 90 % 1011.3 hPa 0.0 l/m 0.3 km/h (0 Bft) N-NO 17.0 C 18.7 C
07.07.2004 23:00 17.4 C 96 % 1011.5 hPa 0.0 l/m 2.1 km/h (1 Bft) O-SO 16.7 C 17.4 C
08.07.2004 00:00 17.1 C 99 % 1011.5 hPa 0.0 l/m 2.2 km/h (1 Bft) O-SO 16.9 C 17.1 C
08.07.2004 01:00 16.4 C 100 % 1011.6 hPa 0.0 l/m 0.3 km/h (0 Bft) O 16.4 C 16.4 C
08.07.2004 02:00 16.5 C 100 % 1011.6 hPa 0.0 l/m 2.2 km/h (1 Bft) O 16.5 C 16.5 C
08.07.2004 03:00 16.6 C 100 % 1010.8 hPa 0.0 l/m 3.6 km/h (1 Bft) O-SO 16.6 C 16.6 C
08.07.2004 04:00 15.9 C 100 % 1010.6 hPa 0.0 l/m 1.0 km/h (0 Bft) O-SO 15.9 C 15.9 C
08.07.2004 05:00 16.7 C 100 % 1010.9 hPa 0.0 l/m 1.8 km/h (1 Bft) NW 16.7 C 16.7 C
08.07.2004 06:00 17.6 C 99 % 1011.0 hPa 0.0 l/m 0.7 km/h (0 Bft) NW 17.4 C 17.6 C
08.07.2004 07:00 18.5 C 88 % 1011.8 hPa 0.0 l/m 0.4 km/h (0 Bft) NW 16.4 C 18.5 C
08.07.2004 08:00 18.1 C 79 % 1011.8 hPa 0.0 l/m 3.7 km/h (1 Bft) NW 14.4 C 18.1 C
08.07.2004 09:00 19.2 C 71 % 1011.8 hPa 0.0 l/m 10.6 km/h (2 Bft) NW 13.9 C 19.2 C
08.07.2004 10:00 20.4 C 65 % 1011.1 hPa 0.0 l/m 13.4 km/h (3 Bft) NW 13.6 C 20.4 C
08.07.2004 11:00 21.7 C 62 % 1010.3 hPa 0.0 l/m 6.6 km/h (2 Bft) NW 14.0 C 21.7 C
08.07.2004 12:00 23.4 C 57 % 1009.7 hPa 0.0 l/m 1.4 km/h (1 Bft) NO 14.2 C 23.4 C
08.07.2004 13:00 23.3 C 56 % 1009.1 hPa 0.0 l/m 16.7 km/h (3 Bft) NW 14.0 C 23.3 C
08.07.2004 14:00 18.3 C 80 % 1010.4 hPa 16.1 l/m 19.8 km/h (4 Bft) NW 14.4 C 18.3 C
08.07.2004 15:00 18.5 C 91 % 1010.8 hPa 0.0 l/m 19.0 km/h (3 Bft) NW 17.0 C 18.5 C
08.07.2004 16:00 16.9 C 96 % 1011.8 hPa 3.1 l/m 13.4 km/h (3 Bft) NW 16.3 C 16.9 C
08.07.2004 17:00 16.9 C 100 % 1012.2 hPa 2.2 l/m 3.3 km/h (1 Bft) NW 16.8 C 16.9 C
08.07.2004 18:00 16.8 C 100 % 1013.3 hPa 1.2 l/m 0.2 km/h (0 Bft) O-NO 16.8 C 16.8 C
08.07.2004 19:00 16.9 C 99 % 1012.6 hPa 0.0 l/m 2.0 km/h (1 Bft) O-SO 16.7 C 16.9 C
08.07.2004 20:00 16.2 C 99 % 1012.7 hPa 1.5 l/m 1.2 km/h (1 Bft) O-SO 16.1 C 16.2 C
08.07.2004 21:00 15.9 C 100 % 1012.9 hPa 0.3 l/m 0.0 km/h (0 Bft) N 15.9 C 15.9 C
08.07.2004 22:00 15.8 C 100 % 1012.9 hPa 0.3 l/m 0.9 km/h (0 Bft) NW 15.8 C 15.8 C
08.07.2004 23:00 15.4 C 100 % 1013.6 hPa 0.9 l/m 2.0 km/h (1 Bft) O-SO 15.4 C 15.4 C
09.07.2004 00:00 14.6 C 100 % 1013.9 hPa 0.6 l/m 2.4 km/h (1 Bft) O 14.6 C 14.6 C
09.07.2004 01:00 14.0 C 100 % 1014.0 hPa 0.0 l/m 3.4 km/h (1 Bft) O-SO 14.0 C 14.0 C
09.07.2004 02:00 13.8 C 100 % 1014.0 hPa 0.0 l/m 3.5 km/h (1 Bft) O-SO 13.8 C 13.8 C
09.07.2004 03:00 13.6 C 100 % 1014.0 hPa 0.6 l/m 0.6 km/h (0 Bft) O-SO 13.6 C 13.6 C
09.07.2004 04:00 13.2 C 100 % 1014.3 hPa 0.0 l/m 3.5 km/h (1 Bft) O-SO 13.2 C 13.2 C
09.07.2004 05:00 13.3 C 100 % 1015.1 hPa 0.0 l/m 0.3 km/h (0 Bft) N 13.3 C 13.3 C
09.07.2004 06:00 13.4 C 100 % 1015.3 hPa 0.0 l/m 0.2 km/h (0 Bft) N 13.4 C 13.4 C
09.07.2004 07:00 13.9 C 100 % 1016.0 hPa 0.0 l/m 0.8 km/h (0 Bft) W-NW 13.9 C 13.9 C
09.07.2004 08:00 14.4 C 92 % 1016.0 hPa 0.0 l/m 5.2 km/h (1 Bft) NW 13.0 C 14.4 C
09.07.2004 09:00 15.3 C 71 % 1015.9 hPa 0.0 l/m 14.7 km/h (3 Bft) NW 10.0 C 15.3 C
09.07.2004 10:00 15.9 C 63 % 1015.8 hPa 0.0 l/m 29.0 km/h (5 Bft) NW 8.8 C 15.9 C
09.07.2004 11:00 15.4 C 66 % 1016.6 hPa 0.3 l/m 25.2 km/h (4 Bft) NW 8.9 C 15.4 C
09.07.2004 12:00 15.5 C 71 % 1016.9 hPa 0.0 l/m 13.9 km/h (3 Bft) NW 10.3 C 15.5 C
09.07.2004 13:00 17.0 C 61 % 1016.7 hPa 0.0 l/m 22.0 km/h (4 Bft) NW 9.3 C 17.0 C
09.07.2004 14:00 18.6 C 50 % 1016.5 hPa 0.0 l/m 21.4 km/h (4 Bft) NW 8.0 C 18.6 C
09.07.2004 15:00 19.5 C 42 % 1016.4 hPa 0.0 l/m 25.4 km/h (4 Bft) NW 6.4 C 19.5 C
09.07.2004 16:00 20.2 C 41 % 1016.3 hPa 0.0 l/m 35.0 km/h (5 Bft) NW 6.4 C 20.2 C
09.07.2004 17:00 20.8 C 38 % 1016.2 hPa 0.0 l/m 26.4 km/h (4 Bft) NW 5.9 C 20.8 C
09.07.2004 18:00 20.1 C 41 % 1016.3 hPa 0.0 l/m 27.1 km/h (4 Bft) NW 6.4 C 20.1 C
09.07.2004 19:00 18.3 C 46 % 1016.5 hPa 0.0 l/m 13.3 km/h (3 Bft) NW 6.5 C 18.3 C
09.07.2004 20:00 17.7 C 47 % 1016.6 hPa 0.0 l/m 14.6 km/h (3 Bft) NW 6.3 C 17.7 C
09.07.2004 21:00 14.9 C 59 % 1017.1 hPa 0.0 l/m 6.7 km/h (2 Bft) NW 6.8 C 14.9 C
09.07.2004 22:00 12.7 C 73 % 1018.3 hPa 0.0 l/m 7.9 km/h (2 Bft) O-SO 8.0 C 12.7 C
09.07.2004 23:00 11.2 C 83 % 1018.5 hPa 0.0 l/m 11.2 km/h (2 Bft) O-SO 8.4 C 11.2 C
10.07.2004 00:00 11.0 C 85 % 1018.6 hPa 0.0 l/m 5.1 km/h (1 Bft) O-SO 8.6 C 11.0 C
10.07.2004 01:00 10.4 C 89 % 1018.0 hPa 0.0 l/m 1.7 km/h (1 Bft) O-SO 8.6 C 10.4 C
10.07.2004 02:00 10.4 C 92 % 1017.6 hPa 0.0 l/m 0.0 km/h (0 Bft) N 9.2 C 10.4 C
10.07.2004 03:00 10.3 C 94 % 1017.6 hPa 0.0 l/m 2.4 km/h (1 Bft) O-SO 9.4 C 10.3 C
10.07.2004 04:00 10.9 C 93 % 1017.5 hPa 0.3 l/m 0.1 km/h (0 Bft) NW 9.9 C 10.9 C
10.07.2004 05:00 11.1 C 98 % 1017.5 hPa 0.9 l/m 1.2 km/h (1 Bft) O-SO 10.8 C 11.1 C
10.07.2004 06:00 11.1 C 100 % 1018.3 hPa 2.8 l/m 2.3 km/h (1 Bft) O-SO 11.1 C 11.1 C
10.07.2004 07:00 11.2 C 100 % 1018.5 hPa 1.5 l/m 3.3 km/h (1 Bft) O-SO 11.2 C 11.2 C
10.07.2004 08:00 11.6 C 100 % 1019.2 hPa 0.0 l/m 8.5 km/h (2 Bft) NW 11.6 C 11.6 C
10.07.2004 09:00 12.5 C 91 % 1019.4 hPa 0.0 l/m 10.6 km/h (2 Bft) NW 11.1 C 12.5 C
10.07.2004 10:00 13.4 C 78 % 1019.3 hPa 0.0 l/m 16.5 km/h (3 Bft) NW 9.7 C 13.4 C
10.07.2004 11:00 13.9 C 76 % 1019.2 hPa 0.3 l/m 17.3 km/h (3 Bft) NW 9.8 C 13.9 C
10.07.2004 12:00 15.4 C 65 % 1019.0 hPa 0.0 l/m 16.3 km/h (3 Bft) NW 8.7 C 15.4 C
10.07.2004 13:00 15.5 C 66 % 1019.0 hPa 0.0 l/m 15.7 km/h (3 Bft) NW 9.0 C 15.5 C
10.07.2004 14:00 16.0 C 63 % 1018.9 hPa 0.0 l/m 16.6 km/h (3 Bft) NW 9.0 C 16.0 C
10.07.2004 15:00 17.6 C 51 % 1017.7 hPa 0.0 l/m 17.8 km/h (3 Bft) NW 7.5 C 17.6 C
10.07.2004 16:00 19.5 C 45 % 1017.4 hPa 0.0 l/m 19.9 km/h (4 Bft) NW 7.1 C 19.5 C
10.07.2004 17:00 18.9 C 46 % 1017.4 hPa 0.0 l/m 22.7 km/h (4 Bft) NW 7.0 C 18.9 C
10.07.2004 18:00 18.8 C 46 % 1016.5 hPa 0.0 l/m 16.5 km/h (3 Bft) NW 6.9 C 18.8 C
10.07.2004 19:00 17.6 C 51 % 1016.6 hPa 0.0 l/m 8.7 km/h (2 Bft) NW 7.3 C 17.6 C
10.07.2004 20:00 15.6 C 63 % 1016.9 hPa 0.0 l/m 10.2 km/h (2 Bft) NW 8.4 C 15.6 C
10.07.2004 21:00 13.0 C 76 % 1018.1 hPa 0.0 l/m 2.2 km/h (1 Bft) N-NO 8.9 C 13.0 C
10.07.2004 22:00 11.9 C 85 % 1018.4 hPa 0.0 l/m 4.7 km/h (1 Bft) O 9.5 C 11.9 C
10.07.2004 23:00 11.0 C 89 % 1018.6 hPa 0.0 l/m 2.8 km/h (1 Bft) O-SO 9.3 C 11.0 C
11.07.2004 00:00 9.8 C 94 % 1018.4 hPa 0.0 l/m 2.2 km/h (1 Bft) O-SO 9.0 C 9.7 C
11.07.2004 01:00 9.6 C 97 % 1017.7 hPa 0.0 l/m 0.1 km/h (0 Bft) O-SO 9.2 C 9.6 C
11.07.2004 02:00 9.0 C 99 % 1017.8 hPa 0.0 l/m 1.8 km/h (1 Bft) O-SO 8.8 C 8.9 C
11.07.2004 03:00 8.7 C 100 % 1017.8 hPa 0.0 l/m 3.6 km/h (1 Bft) O-SO 8.6 C 8.4 C
11.07.2004 04:00 9.9 C 100 % 1017.7 hPa 0.0 l/m 0.0 km/h (0 Bft) N 9.9 C 9.9 C
11.07.2004 05:00 9.8 C 98 % 1017.0 hPa 0.0 l/m 7.5 km/h (2 Bft) O-SO 9.5 C 8.8 C
11.07.2004 06:00 10.1 C 97 % 1016.6 hPa 0.0 l/m 3.1 km/h (1 Bft) O-SO 9.7 C 9.8 C
11.07.2004 07:00 11.7 C 91 % 1016.4 hPa 0.0 l/m 0.4 km/h (0 Bft) O-SO 10.3 C 11.7 C
11.07.2004 08:00 12.8 C 79 % 1016.2 hPa 0.0 l/m 1.5 km/h (1 Bft) NW 9.1 C 12.8 C
11.07.2004 09:00 14.1 C 65 % 1016.1 hPa 0.0 l/m 10.6 km/h (2 Bft) NW 7.5 C 14.1 C
11.07.2004 10:00 15.4 C 56 % 1015.9 hPa 0.0 l/m 18.3 km/h (3 Bft) NW 6.8 C 15.4 C
11.07.2004 11:00 16.6 C 48 % 1015.7 hPa 0.0 l/m 19.0 km/h (3 Bft) NW 5.6 C 16.6 C
11.07.2004 12:00 17.6 C 43 % 1014.8 hPa 0.0 l/m 17.1 km/h (3 Bft) NW 4.8 C 17.6 C
11.07.2004 13:00 18.7 C 36 % 1013.9 hPa 0.0 l/m 24.3 km/h (4 Bft) NW 3.4 C 18.7 C
11.07.2004 14:00 19.7 C 34 % 1013.2 hPa 0.0 l/m 19.0 km/h (3 Bft) NW 3.2 C 19.7 C
11.07.2004 15:00 17.0 C 46 % 1013.7 hPa 0.0 l/m 38.6 km/h (5 Bft) NW 4.6 C 17.0 C
11.07.2004 16:00 15.4 C 57 % 1014.8 hPa 0.0 l/m 24.8 km/h (4 Bft) NW 7.0 C 15.4 C
11.07.2004 17:00 15.0 C 64 % 1014.7 hPa 0.0 l/m 25.0 km/h (4 Bft) NW 8.2 C 15.0 C
11.07.2004 18:00 14.3 C 72 % 1014.8 hPa 0.0 l/m 10.8 km/h (2 Bft) NW 9.3 C 14.3 C
11.07.2004 19:00 14.9 C 64 % 1014.9 hPa 0.0 l/m 8.6 km/h (2 Bft) NW 8.2 C 14.9 C
11.07.2004 20:00 14.5 C 70 % 1014.4 hPa 0.0 l/m 0.3 km/h (0 Bft) W 9.0 C 14.5 C
11.07.2004 21:00 13.2 C 78 % 1015.1 hPa 0.0 l/m 0.1 km/h (0 Bft) N 9.4 C 13.2 C
11.07.2004 22:00 11.8 C 88 % 1015.3 hPa 0.0 l/m 0.7 km/h (0 Bft) SO 9.8 C 11.8 C
11.07.2004 23:00 11.6 C 92 % 1015.4 hPa 0.0 l/m 0.2 km/h (0 Bft) N 10.4 C 11.6 C
Min-Datum _ 11.07.04 11.07.04 08.07.04 - 05.07.04 - 11.07.04 11.07.04
_ Min-Zeit 03:29 14:20 13:14 - 00:02 - 15:38 03:32
Minimum _ 8.3 C 31 % 1008.4 hPa - 0.0 km/h (0 Bft) - 0.6 C 7.7 C
Max-Datum _ 05.07.04 05.07.04 06.07.04 08.07.04 11.07.04 - 07.07.04 05.07.04
_ Max-Zeit 16:17 22:47 10:14 14:32 15:50 - 15:56 16:17
Maximum _ 27.2 C 100 % 1022.1 hPa 16.1 l/m 63.0 km/h
NW (8 Bft)
- 20.3 C 27.2 C
Durchschnitt _ 16.5 C 80 % 1016.2 hPa #45.3 l/m 7.0 km/h (2 Bft) NW 12.4 C 16.4 C

Durchschnitt Minimum Temp.15.6 C
Durchschnitt Maximum Temp.17.3 C
© Kaiko 2004